sensor_id;sensor_type;location;lat;lon;timestamp;pressure;altitude;pressure_sealevel;temperature;humidity
79540;BME280;74475;52.122;5.406;2023-12-22T00:00:59;100324.31;;;19.74;58.33
79540;BME280;74475;52.122;5.406;2023-12-22T00:03:26;100326.34;;;19.72;58.07
79540;BME280;74475;52.122;5.406;2023-12-22T00:05:52;100324.75;;;19.70;58.05
79540;BME280;74475;52.122;5.406;2023-12-22T00:08:19;100323.19;;;19.67;58.23
79540;BME280;74475;52.122;5.406;2023-12-22T00:10:45;100324.34;;;19.65;58.21
79540;BME280;74475;52.122;5.406;2023-12-22T00:13:11;100349.91;;;19.64;58.58
79540;BME280;74475;52.122;5.406;2023-12-22T00:15:38;100348.34;;;19.61;58.28
79540;BME280;74475;52.122;5.406;2023-12-22T00:18:05;100355.78;;;19.59;58.33
79540;BME280;74475;52.122;5.406;2023-12-22T00:20:31;100356.09;;;19.56;58.28
79540;BME280;74475;52.122;5.406;2023-12-22T00:22:58;100372.59;;;19.55;58.08
79540;BME280;74475;52.122;5.406;2023-12-22T00:25:24;100364.56;;;19.53;58.33
79540;BME280;74475;52.122;5.406;2023-12-22T00:27:51;100336.72;;;19.50;58.16
79540;BME280;74475;52.122;5.406;2023-12-22T00:30:17;100354.94;;;19.49;58.11
79540;BME280;74475;52.122;5.406;2023-12-22T00:32:44;100356.22;;;19.45;58.16
79540;BME280;74475;52.122;5.406;2023-12-22T00:35:11;100376.34;;;19.44;58.17
79540;BME280;74475;52.122;5.406;2023-12-22T00:37:37;100364.72;;;19.42;57.95
79540;BME280;74475;52.122;5.406;2023-12-22T00:40:04;100375.75;;;19.41;57.82
79540;BME280;74475;52.122;5.406;2023-12-22T00:42:33;100362.25;;;19.39;58.14
79540;BME280;74475;52.122;5.406;2023-12-22T00:44:59;100347.91;;;19.37;57.84
79540;BME280;74475;52.122;5.406;2023-12-22T00:47:26;100359.94;;;19.34;57.95
79540;BME280;74475;52.122;5.406;2023-12-22T00:49:52;100361.97;;;19.32;58.13
79540;BME280;74475;52.122;5.406;2023-12-22T00:52:19;100359.38;;;19.31;57.95
79540;BME280;74475;52.122;5.406;2023-12-22T00:54:45;100365.84;;;19.30;58.04
79540;BME280;74475;52.122;5.406;2023-12-22T00:57:12;100369.56;;;19.29;57.91
79540;BME280;74475;52.122;5.406;2023-12-22T00:59:39;100375.16;;;19.27;57.97
79540;BME280;74475;52.122;5.406;2023-12-22T01:02:11;100384.34;;;19.26;57.97
79540;BME280;74475;52.122;5.406;2023-12-22T01:04:38;100381.75;;;19.25;57.76
79540;BME280;74475;52.122;5.406;2023-12-22T01:07:07;100390.94;;;19.24;58.06
79540;BME280;74475;52.122;5.406;2023-12-22T01:09:34;100394.69;;;19.23;58.01
79540;BME280;74475;52.122;5.406;2023-12-22T01:12:01;100394.97;;;19.20;57.94
79540;BME280;74475;52.122;5.406;2023-12-22T01:14:30;100401.41;;;19.19;58.01
79540;BME280;74475;52.122;5.406;2023-12-22T01:16:57;100396.09;;;19.17;58.24
79540;BME280;74475;52.122;5.406;2023-12-22T01:19:25;100397.13;;;19.16;57.87
79540;BME280;74475;52.122;5.406;2023-12-22T01:21:52;100399.09;;;19.14;58.15
79540;BME280;74475;52.122;5.406;2023-12-22T01:24:19;100395.53;;;19.14;57.92
79540;BME280;74475;52.122;5.406;2023-12-22T01:26:45;100390.22;;;19.12;57.92
79540;BME280;74475;52.122;5.406;2023-12-22T01:29:11;100408.44;;;19.12;58.00
79540;BME280;74475;52.122;5.406;2023-12-22T01:31:38;100405.84;;;19.10;57.94
79540;BME280;74475;52.122;5.406;2023-12-22T01:34:04;100392.38;;;19.09;58.07
79540;BME280;74475;52.122;5.406;2023-12-22T01:36:31;100387.06;;;19.07;58.32
79540;BME280;74475;52.122;5.406;2023-12-22T01:38:57;100396.22;;;19.06;58.14
79540;BME280;74475;52.122;5.406;2023-12-22T01:41:24;100396.38;;;19.05;57.86
79540;BME280;74475;52.122;5.406;2023-12-22T01:43:51;100387.34;;;19.04;58.00
79540;BME280;74475;52.122;5.406;2023-12-22T01:46:18;100390.19;;;19.03;57.84
79540;BME280;74475;52.122;5.406;2023-12-22T01:48:45;100383.91;;;19.02;57.77
79540;BME280;74475;52.122;5.406;2023-12-22T01:51:11;100386.75;;;19.01;57.80
79540;BME280;74475;52.122;5.406;2023-12-22T01:53:38;100377.72;;;19.00;57.88
79540;BME280;74475;52.122;5.406;2023-12-22T01:56:06;100380.63;;;18.99;57.95
79540;BME280;74475;52.122;5.406;2023-12-22T01:58:34;100386.19;;;18.97;58.07
79540;BME280;74475;52.122;5.406;2023-12-22T02:01:02;100408.09;;;18.96;58.03
79540;BME280;74475;52.122;5.406;2023-12-22T02:03:30;100401.81;;;18.95;57.88
79540;BME280;74475;52.122;5.406;2023-12-22T02:05:56;100391.91;;;18.94;57.96
79540;BME280;74475;52.122;5.406;2023-12-22T02:08:24;100386.59;;;18.93;57.93
79540;BME280;74475;52.122;5.406;2023-12-22T02:10:52;100389.50;;;18.91;57.82
79540;BME280;74475;52.122;5.406;2023-12-22T02:13:19;100388.63;;;18.91;58.01
79540;BME280;74475;52.122;5.406;2023-12-22T02:15:47;100383.28;;;18.89;58.28
79540;BME280;74475;52.122;5.406;2023-12-22T02:18:21;100385.16;;;18.88;58.04
79540;BME280;74475;52.122;5.406;2023-12-22T02:20:52;100369.84;;;18.87;57.86
79540;BME280;74475;52.122;5.406;2023-12-22T02:23:19;100369.97;;;18.86;58.31
79540;BME280;74475;52.122;5.406;2023-12-22T02:25:46;100359.22;;;18.84;58.06
79540;BME280;74475;52.122;5.406;2023-12-22T02:28:16;100352.91;;;18.84;57.85
79540;BME280;74475;52.122;5.406;2023-12-22T02:31:02;100343.00;;;18.83;58.05
79540;BME280;74475;52.122;5.406;2023-12-22T02:33:31;100348.47;;;18.83;57.93
79540;BME280;74475;52.122;5.406;2023-12-22T02:36:03;100360.34;;;18.82;58.06
79540;BME280;74475;52.122;5.406;2023-12-22T02:38:31;100350.47;;;18.81;58.24
79540;BME280;74475;52.122;5.406;2023-12-22T02:40:58;100354.19;;;18.80;57.79
79540;BME280;74475;52.122;5.406;2023-12-22T02:43:25;100351.59;;;18.78;58.02
79540;BME280;74475;52.122;5.406;2023-12-22T02:45:52;100333.56;;;18.77;57.42
79540;BME280;74475;52.122;5.406;2023-12-22T02:48:18;100342.72;;;18.76;57.88
79540;BME280;74475;52.122;5.406;2023-12-22T02:50:45;100347.31;;;18.76;57.77
79540;BME280;74475;52.122;5.406;2023-12-22T02:53:11;100345.56;;;18.75;57.74
79540;BME280;74475;52.122;5.406;2023-12-22T02:55:38;100343.88;;;18.74;57.73
79540;BME280;74475;52.122;5.406;2023-12-22T02:58:04;100339.56;;;18.71;57.67
79540;BME280;74475;52.122;5.406;2023-12-22T03:00:31;100340.56;;;18.70;57.33
79540;BME280;74475;52.122;5.406;2023-12-22T03:02:57;100353.31;;;18.70;57.62
79540;BME280;74475;52.122;5.406;2023-12-22T03:05:24;100346.16;;;18.69;57.90
79540;BME280;74475;52.122;5.406;2023-12-22T03:07:50;100352.59;;;18.68;57.57
79540;BME280;74475;52.122;5.406;2023-12-22T03:10:17;100368.22;;;18.66;57.31
79540;BME280;74475;52.122;5.406;2023-12-22T03:12:44;100357.31;;;18.66;57.56
79540;BME280;74475;52.122;5.406;2023-12-22T03:15:10;100363.75;;;18.65;57.64
79540;BME280;74475;52.122;5.406;2023-12-22T03:17:37;100360.19;;;18.64;57.57
79540;BME280;74475;52.122;5.406;2023-12-22T03:20:04;100368.50;;;18.63;57.61
79540;BME280;74475;52.122;5.406;2023-12-22T03:22:30;100372.22;;;18.62;57.58
79540;BME280;74475;52.122;5.406;2023-12-22T03:24:57;100360.47;;;18.61;57.76
79540;BME280;74475;52.122;5.406;2023-12-22T03:27:23;100382.41;;;18.60;57.42
79540;BME280;74475;52.122;5.406;2023-12-22T03:29:50;100374.22;;;18.60;57.67
79540;BME280;74475;52.122;5.406;2023-12-22T03:32:16;100361.72;;;18.57;57.39
79540;BME280;74475;52.122;5.406;2023-12-22T03:34:43;100366.31;;;18.57;57.73
79540;BME280;74475;52.122;5.406;2023-12-22T03:37:09;100379.09;;;18.56;57.13
79540;BME280;74475;52.122;5.406;2023-12-22T03:39:36;100383.66;;;18.56;57.57
79540;BME280;74475;52.122;5.406;2023-12-22T03:42:02;100396.41;;;18.55;57.46
79540;BME280;74475;52.122;5.406;2023-12-22T03:44:29;100402.84;;;18.54;57.68
79540;BME280;74475;52.122;5.406;2023-12-22T03:46:55;100436.50;;;18.53;57.40
79540;BME280;74475;52.122;5.406;2023-12-22T03:49:22;100429.22;;;18.54;57.62
79540;BME280;74475;52.122;5.406;2023-12-22T03:51:49;100417.44;;;18.53;56.98
79540;BME280;74475;52.122;5.406;2023-12-22T03:54:15;100425.78;;;18.52;57.40
79540;BME280;74475;52.122;5.406;2023-12-22T03:56:43;100422.19;;;18.51;57.47
79540;BME280;74475;52.122;5.406;2023-12-22T03:59:10;100434.03;;;18.50;57.42
79540;BME280;74475;52.122;5.406;2023-12-22T04:01:37;100419.56;;;18.50;57.34
79540;BME280;74475;52.122;5.406;2023-12-22T04:04:03;100425.16;;;18.48;57.42
79540;BME280;74475;52.122;5.406;2023-12-22T04:06:30;100418.84;;;18.48;57.59
79540;BME280;74475;52.122;5.406;2023-12-22T04:08:56;100417.13;;;18.47;57.47
79540;BME280;74475;52.122;5.406;2023-12-22T04:11:23;100414.53;;;18.45;57.14
79540;BME280;74475;52.122;5.406;2023-12-22T04:13:49;100420.00;;;18.45;57.30
79540;BME280;74475;52.122;5.406;2023-12-22T04:16:16;100418.25;;;18.44;57.61
79540;BME280;74475;52.122;5.406;2023-12-22T04:18:42;100413.81;;;18.43;57.28
79540;BME280;74475;52.122;5.406;2023-12-22T04:21:09;100421.09;;;18.42;57.45
79540;BME280;74475;52.122;5.406;2023-12-22T04:23:35;100424.84;;;18.42;57.23
79540;BME280;74475;52.122;5.406;2023-12-22T04:26:02;100424.84;;;18.42;57.74
79540;BME280;74475;52.122;5.406;2023-12-22T04:28:29;100434.00;;;18.40;57.62
79540;BME280;74475;52.122;5.406;2023-12-22T04:30:55;100434.00;;;18.40;57.56
79540;BME280;74475;52.122;5.406;2023-12-22T04:33:22;100432.28;;;18.39;57.15
79540;BME280;74475;52.122;5.406;2023-12-22T04:35:48;100424.09;;;18.39;57.55
79540;BME280;74475;52.122;5.406;2023-12-22T04:38:15;100425.13;;;18.38;57.66
79540;BME280;74475;52.122;5.406;2023-12-22T04:40:41;100422.53;;;18.37;57.64
79540;BME280;74475;52.122;5.406;2023-12-22T04:43:08;100408.91;;;18.37;57.63
79540;BME280;74475;52.122;5.406;2023-12-22T04:45:35;100426.25;;;18.36;57.69
79540;BME280;74475;52.122;5.406;2023-12-22T04:48:01;100419.94;;;18.35;57.57
79540;BME280;74475;52.122;5.406;2023-12-22T04:50:28;100428.09;;;18.35;57.69
79540;BME280;74475;52.122;5.406;2023-12-22T04:52:54;100432.81;;;18.33;57.66
79540;BME280;74475;52.122;5.406;2023-12-22T04:55:21;100437.41;;;18.33;57.53
79540;BME280;74475;52.122;5.406;2023-12-22T04:57:48;100434.69;;;18.33;57.78
79540;BME280;74475;52.122;5.406;2023-12-22T05:00:15;100421.94;;;18.33;57.78
79540;BME280;74475;52.122;5.406;2023-12-22T05:02:41;100432.69;;;18.35;57.59
79540;BME280;74475;52.122;5.406;2023-12-22T05:05:08;100421.94;;;18.33;57.73
79540;BME280;74475;52.122;5.406;2023-12-22T05:07:34;100427.38;;;18.33;57.70
79540;BME280;74475;52.122;5.406;2023-12-22T05:10:01;100424.66;;;18.33;57.73
79540;BME280;74475;52.122;5.406;2023-12-22T05:12:28;100408.44;;;18.32;57.45
79540;BME280;74475;52.122;5.406;2023-12-22T05:14:54;100404.03;;;18.31;57.53
79540;BME280;74475;52.122;5.406;2023-12-22T05:17:20;100420.34;;;18.31;57.72
79540;BME280;74475;52.122;5.406;2023-12-22T05:19:47;100418.50;;;18.31;58.02
79540;BME280;74475;52.122;5.406;2023-12-22T05:22:13;100413.19;;;18.30;57.69
79540;BME280;74475;52.122;5.406;2023-12-22T05:24:40;100394.13;;;18.30;57.58
79540;BME280;74475;52.122;5.406;2023-12-22T05:27:06;100397.84;;;18.29;57.64
79540;BME280;74475;52.122;5.406;2023-12-22T05:29:33;100405.16;;;18.28;57.53
79540;BME280;74475;52.122;5.406;2023-12-22T05:31:59;100424.34;;;18.27;57.66
79540;BME280;74475;52.122;5.406;2023-12-22T05:34:26;100416.19;;;18.27;57.60
79540;BME280;74475;52.122;5.406;2023-12-22T05:36:53;100408.13;;;18.25;57.29
79540;BME280;74475;52.122;5.406;2023-12-22T05:39:19;100405.56;;;18.24;57.42
79540;BME280;74475;52.122;5.406;2023-12-22T05:41:46;100398.41;;;18.23;57.70
79540;BME280;74475;52.122;5.406;2023-12-22T05:44:12;100395.81;;;18.21;57.32
79540;BME280;74475;52.122;5.406;2023-12-22T05:46:39;100407.56;;;18.22;57.23
79540;BME280;74475;52.122;5.406;2023-12-22T05:49:06;100394.09;;;18.20;57.39
79540;BME280;74475;52.122;5.406;2023-12-22T05:51:36;100402.25;;;18.20;57.38
79540;BME280;74475;52.122;5.406;2023-12-22T05:54:05;100396.94;;;18.19;57.27
79540;BME280;74475;52.122;5.406;2023-12-22T05:56:31;100405.09;;;18.19;57.17
79540;BME280;74475;52.122;5.406;2023-12-22T05:58:59;100406.09;;;18.18;57.27
79540;BME280;74475;52.122;5.406;2023-12-22T06:01:25;100412.56;;;18.17;57.20
79540;BME280;74475;52.122;5.406;2023-12-22T06:03:52;100408.97;;;18.16;57.65
79540;BME280;74475;52.122;5.406;2023-12-22T06:06:19;100410.81;;;18.16;57.15
79540;BME280;74475;52.122;5.406;2023-12-22T06:08:45;100397.22;;;18.16;57.22
79540;BME280;74475;52.122;5.406;2023-12-22T06:11:12;100400.06;;;18.14;57.38
79540;BME280;74475;52.122;5.406;2023-12-22T06:13:39;100393.78;;;18.14;57.33
79540;BME280;74475;52.122;5.406;2023-12-22T06:16:05;100398.38;;;18.13;57.34
79540;BME280;74475;52.122;5.406;2023-12-22T06:18:32;100401.22;;;18.12;57.48
79540;BME280;74475;52.122;5.406;2023-12-22T06:20:58;100395.75;;;18.12;57.29
79540;BME280;74475;52.122;5.406;2023-12-22T06:23:25;100398.47;;;18.12;57.53
79540;BME280;74475;52.122;5.406;2023-12-22T06:25:51;100404.91;;;18.11;57.18
79540;BME280;74475;52.122;5.406;2023-12-22T06:28:18;100411.22;;;18.11;57.13
79540;BME280;74475;52.122;5.406;2023-12-22T06:30:44;100403.22;;;18.10;57.32
79540;BME280;74475;52.122;5.406;2023-12-22T06:33:11;100408.66;;;18.10;57.20
79540;BME280;74475;52.122;5.406;2023-12-22T06:35:38;100393.31;;;18.09;57.49
79540;BME280;74475;52.122;5.406;2023-12-22T06:38:07;100403.34;;;18.08;57.38
79540;BME280;74475;52.122;5.406;2023-12-22T06:40:34;100388.88;;;18.08;57.17
79540;BME280;74475;52.122;5.406;2023-12-22T06:43:00;100391.75;;;18.06;57.36
79540;BME280;74475;52.122;5.406;2023-12-22T06:45:27;100396.31;;;18.06;57.24
79540;BME280;74475;52.122;5.406;2023-12-22T06:47:55;100402.75;;;18.05;57.40
79540;BME280;74475;52.122;5.406;2023-12-22T06:50:22;100392.84;;;18.04;57.39
79540;BME280;74475;52.122;5.406;2023-12-22T06:52:48;100392.84;;;18.04;56.96
79540;BME280;74475;52.122;5.406;2023-12-22T06:55:16;100394.69;;;18.03;57.07
79540;BME280;74475;52.122;5.406;2023-12-22T06:57:43;100395.72;;;18.02;57.05
79540;BME280;74475;52.122;5.406;2023-12-22T07:00:11;100384.84;;;18.02;57.33
79540;BME280;74475;52.122;5.406;2023-12-22T07:02:37;100389.41;;;18.02;57.28
79540;BME280;74475;52.122;5.406;2023-12-22T07:07:47;100400.31;;;18.02;57.15
79540;BME280;74475;52.122;5.406;2023-12-22T07:10:14;100391.28;;;18.01;57.32
79540;BME280;74475;52.122;5.406;2023-12-22T07:12:41;100394.00;;;18.01;57.23
79540;BME280;74475;52.122;5.406;2023-12-22T07:15:09;100382.25;;;18.01;57.40
79540;BME280;74475;52.122;5.406;2023-12-22T07:17:36;100383.97;;;18.02;57.30
79540;BME280;74475;52.122;5.406;2023-12-22T07:20:03;100385.72;;;18.03;57.49
79540;BME280;74475;52.122;5.406;2023-12-22T07:22:30;100393.72;;;18.04;57.49
79540;BME280;74475;52.122;5.406;2023-12-22T07:24:56;100396.31;;;18.06;57.88
79540;BME280;74475;52.122;5.406;2023-12-22T07:27:24;100405.34;;;18.06;57.76
79540;BME280;74475;52.122;5.406;2023-12-22T07:29:53;100414.22;;;18.08;57.71
79540;BME280;74475;52.122;5.406;2023-12-22T07:32:19;100403.34;;;18.08;57.63
79540;BME280;74475;52.122;5.406;2023-12-22T07:34:46;100404.09;;;18.10;58.00
79540;BME280;74475;52.122;5.406;2023-12-22T07:37:12;100405.06;;;18.09;57.50
79540;BME280;74475;52.122;5.406;2023-12-22T07:39:39;100397.63;;;18.11;58.07
79540;BME280;74475;52.122;5.406;2023-12-22T07:42:06;100398.47;;;18.12;58.00
79540;BME280;74475;52.122;5.406;2023-12-22T07:44:33;100401.09;;;18.13;58.29
79540;BME280;74475;52.122;5.406;2023-12-22T07:46:59;100409.09;;;18.15;58.04
79540;BME280;74475;52.122;5.406;2023-12-22T07:49:28;100394.63;;;18.14;58.06
79540;BME280;74475;52.122;5.406;2023-12-22T07:51:57;100403.66;;;18.15;58.09
79540;BME280;74475;52.122;5.406;2023-12-22T07:54:23;100387.31;;;18.15;58.15
79540;BME280;74475;52.122;5.406;2023-12-22T07:56:50;100392.66;;;18.16;58.12
79540;BME280;74475;52.122;5.406;2023-12-22T07:59:16;100393.50;;;18.17;58.54
79540;BME280;74475;52.122;5.406;2023-12-22T08:01:56;100407.13;;;18.17;58.43
79540;BME280;74475;52.122;5.406;2023-12-22T08:04:23;100409.84;;;18.17;58.55
79540;BME280;74475;52.122;5.406;2023-12-22T08:06:49;100422.41;;;18.18;58.28
79540;BME280;74475;52.122;5.406;2023-12-22T08:09:16;100420.44;;;18.20;58.51
79540;BME280;74475;52.122;5.406;2023-12-22T08:11:42;100422.19;;;18.21;58.59
79540;BME280;74475;52.122;5.406;2023-12-22T08:14:12;100410.28;;;18.22;58.67
79540;BME280;74475;52.122;5.406;2023-12-22T08:16:39;100402.09;;;18.22;58.44
79540;BME280;74475;52.122;5.406;2023-12-22T08:19:05;100410.28;;;18.22;58.68
79540;BME280;74475;52.122;5.406;2023-12-22T08:21:32;100413.88;;;18.22;58.33
79540;BME280;74475;52.122;5.406;2023-12-22T08:24:10;100404.84;;;18.22;58.72
79540;BME280;74475;52.122;5.406;2023-12-22T08:26:44;100396.66;;;18.22;58.93
79540;BME280;74475;52.122;5.406;2023-12-22T08:29:10;100386.66;;;18.22;58.78
79540;BME280;74475;52.122;5.406;2023-12-22T08:31:37;100378.50;;;18.22;58.83
79540;BME280;74475;52.122;5.406;2023-12-22T08:34:03;100370.31;;;18.22;59.26
79540;BME280;74475;52.122;5.406;2023-12-22T08:36:31;100359.31;;;18.24;58.88
79540;BME280;74475;52.122;5.406;2023-12-22T08:38:58;100372.94;;;18.24;58.81
79540;BME280;74475;52.122;5.406;2023-12-22T08:41:25;100373.91;;;18.23;58.75
79540;BME280;74475;52.122;5.406;2023-12-22T08:43:53;100364.88;;;18.22;58.58
79540;BME280;74475;52.122;5.406;2023-12-22T08:46:19;100361.28;;;18.22;58.30
79540;BME280;74475;52.122;5.406;2023-12-22T08:48:46;100362.31;;;18.21;58.55
79540;BME280;74475;52.122;5.406;2023-12-22T08:51:13;100354.16;;;18.21;58.61
79540;BME280;74475;52.122;5.406;2023-12-22T08:53:39;100353.41;;;18.19;58.22
79540;BME280;74475;52.122;5.406;2023-12-22T08:56:06;100359.13;;;18.16;58.19
79540;BME280;74475;52.122;5.406;2023-12-22T08:58:33;100348.53;;;18.13;58.05
79540;BME280;74475;52.122;5.406;2023-12-22T09:01:00;100358.66;;;18.11;58.07
79540;BME280;74475;52.122;5.406;2023-12-22T09:03:27;100356.38;;;17.85;57.65
79540;BME280;74475;52.122;5.406;2023-12-22T09:05:54;100369.88;;;17.87;58.16
79540;BME280;74475;52.122;5.406;2023-12-22T09:08:21;100363.00;;;17.92;58.13
79540;BME280;74475;52.122;5.406;2023-12-22T09:10:47;100368.22;;;17.96;58.39
79540;BME280;74475;52.122;5.406;2023-12-22T09:13:14;100368.91;;;17.98;58.29
79540;BME280;74475;52.122;5.406;2023-12-22T09:15:40;100370.50;;;18.00;58.36
79540;BME280;74475;52.122;5.406;2023-12-22T09:18:07;100365.06;;;18.00;58.29
79540;BME280;74475;52.122;5.406;2023-12-22T09:20:34;100373.09;;;18.02;58.68
79540;BME280;74475;52.122;5.406;2023-12-22T09:23:00;100396.59;;;18.03;58.92
79540;BME280;74475;52.122;5.406;2023-12-22T09:25:27;100380.28;;;18.03;58.44
79540;BME280;74475;52.122;5.406;2023-12-22T09:27:54;100380.28;;;18.03;58.73
79540;BME280;74475;52.122;5.406;2023-12-22T09:30:20;100381.25;;;18.02;59.07
79540;BME280;74475;52.122;5.406;2023-12-22T09:32:47;100375.81;;;18.02;59.03
79540;BME280;74475;52.122;5.406;2023-12-22T09:35:14;100391.16;;;18.03;59.19
79540;BME280;74475;52.122;5.406;2023-12-22T09:37:41;100402.88;;;18.03;58.97
79540;BME280;74475;52.122;5.406;2023-12-22T09:40:08;100376.53;;;18.04;59.31
79540;BME280;74475;52.122;5.406;2023-12-22T09:42:39;100379.13;;;18.05;59.47
79540;BME280;74475;52.122;5.406;2023-12-22T09:45:08;100368.09;;;18.07;59.46
79540;BME280;74475;52.122;5.406;2023-12-22T09:47:39;100376.25;;;18.07;59.79
79540;BME280;74475;52.122;5.406;2023-12-22T09:50:07;100371.69;;;18.07;59.76
79540;BME280;74475;52.122;5.406;2023-12-22T09:52:35;100361.66;;;18.08;59.72
79540;BME280;74475;52.122;5.406;2023-12-22T09:55:01;100357.09;;;18.08;59.83
79540;BME280;74475;52.122;5.406;2023-12-22T09:57:30;100350.78;;;18.08;59.72
79540;BME280;74475;52.122;5.406;2023-12-22T09:59:57;100349.78;;;18.09;59.96
79540;BME280;74475;52.122;5.406;2023-12-22T10:02:25;100354.25;;;18.10;60.25
79540;BME280;74475;52.122;5.406;2023-12-22T10:04:53;100359.53;;;18.11;60.51
79540;BME280;74475;52.122;5.406;2023-12-22T10:07:20;100361.97;;;18.14;60.85
79540;BME280;74475;52.122;5.406;2023-12-22T10:09:47;100360.00;;;18.16;61.09
79540;BME280;74475;52.122;5.406;2023-12-22T10:12:14;100360.88;;;18.17;61.51
79540;BME280;74475;52.122;5.406;2023-12-22T10:14:42;100357.13;;;18.18;61.50
79540;BME280;74475;52.122;5.406;2023-12-22T10:17:09;100364.28;;;18.19;61.49
79540;BME280;74475;52.122;5.406;2023-12-22T10:19:35;100376.16;;;18.18;61.38
79540;BME280;74475;52.122;5.406;2023-12-22T10:22:02;100357.00;;;18.19;61.42
79540;BME280;74475;52.122;5.406;2023-12-22T10:24:41;100357.88;;;18.20;61.54
79540;BME280;74475;52.122;5.406;2023-12-22T10:27:14;100373.19;;;18.21;61.34
79540;BME280;74475;52.122;5.406;2023-12-22T10:29:41;100371.47;;;18.20;61.05
79540;BME280;74475;52.122;5.406;2023-12-22T10:32:08;100357.88;;;18.20;61.38
79540;BME280;74475;52.122;5.406;2023-12-22T10:34:38;100370.59;;;18.19;61.14
79540;BME280;74475;52.122;5.406;2023-12-22T10:37:05;100357.88;;;18.20;61.72
79540;BME280;74475;52.122;5.406;2023-12-22T10:39:32;100360.59;;;18.20;61.49
79540;BME280;74475;52.122;5.406;2023-12-22T10:41:59;100377.78;;;18.20;61.42
79540;BME280;74475;52.122;5.406;2023-12-22T10:44:27;100376.91;;;18.20;61.49
79540;BME280;74475;52.122;5.406;2023-12-22T10:46:55;100372.19;;;18.22;61.42
79540;BME280;74475;52.122;5.406;2023-12-22T10:49:22;100376.91;;;18.20;61.45
79540;BME280;74475;52.122;5.406;2023-12-22T10:51:50;100378.66;;;18.21;61.48
79540;BME280;74475;52.122;5.406;2023-12-22T10:54:18;100371.47;;;18.20;61.34
79540;BME280;74475;52.122;5.406;2023-12-22T10:56:44;100366.03;;;18.20;61.62
79540;BME280;74475;52.122;5.406;2023-12-22T10:59:11;100369.75;;;18.19;61.38
79540;BME280;74475;52.122;5.406;2023-12-22T11:01:38;100368.88;;;18.18;61.40
79540;BME280;74475;52.122;5.406;2023-12-22T11:04:07;100360.00;;;18.16;61.40
79540;BME280;74475;52.122;5.406;2023-12-22T11:06:35;100365.28;;;18.18;61.60
79540;BME280;74475;52.122;5.406;2023-12-22T11:09:07;100354.41;;;18.18;61.50
79540;BME280;74475;52.122;5.406;2023-12-22T11:11:38;100342.53;;;18.19;61.61
79540;BME280;74475;52.122;5.406;2023-12-22T11:14:06;100353.28;;;18.20;61.63
79540;BME280;74475;52.122;5.406;2023-12-22T11:16:34;100353.13;;;18.22;61.10
79540;BME280;74475;52.122;5.406;2023-12-22T11:19:02;100362.31;;;18.21;60.69
79540;BME280;74475;52.122;5.406;2023-12-22T11:21:31;100350.56;;;18.20;60.64
79540;BME280;74475;52.122;5.406;2023-12-22T11:23:59;100359.44;;;18.22;60.44
79540;BME280;74475;52.122;5.406;2023-12-22T11:26:25;100351.16;;;18.24;60.46
79540;BME280;74475;52.122;5.406;2023-12-22T11:28:52;100350.88;;;18.27;60.50
79540;BME280;74475;52.122;5.406;2023-12-22T11:31:19;100357.03;;;18.29;60.54
79540;BME280;74475;52.122;5.406;2023-12-22T11:33:48;100350.59;;;18.30;60.35
79540;BME280;74475;52.122;5.406;2023-12-22T11:36:31;100345.88;;;18.32;60.42
79540;BME280;74475;52.122;5.406;2023-12-22T11:38:57;100350.59;;;18.30;60.17
79540;BME280;74475;52.122;5.406;2023-12-22T11:41:26;100352.44;;;18.29;60.27
79540;BME280;74475;52.122;5.406;2023-12-22T11:43:54;100346.88;;;18.31;60.31
79540;BME280;74475;52.122;5.406;2023-12-22T11:46:22;100350.47;;;18.31;60.43
79540;BME280;74475;52.122;5.406;2023-12-22T11:48:52;100335.72;;;18.34;60.71
79540;BME280;74475;52.122;5.406;2023-12-22T11:51:19;100344.59;;;18.36;60.88
79540;BME280;74475;52.122;5.406;2023-12-22T11:53:45;100337.16;;;18.38;60.89
79540;BME280;74475;52.122;5.406;2023-12-22T11:56:12;100337.75;;;18.42;60.99
79540;BME280;74475;52.122;5.406;2023-12-22T11:58:47;100341.75;;;18.47;61.05
79540;BME280;74475;52.122;5.406;2023-12-22T12:01:26;100334.09;;;18.52;60.75
79540;BME280;74475;52.122;5.406;2023-12-22T12:03:57;100329.22;;;18.56;60.91
79540;BME280;74475;52.122;5.406;2023-12-22T12:08:59;100313.03;;;18.64;60.99
79540;BME280;74475;52.122;5.406;2023-12-22T12:14:22;100305.47;;;18.77;60.79
79540;BME280;74475;52.122;5.406;2023-12-22T12:17:07;100300.16;;;18.85;60.80
79540;BME280;74475;52.122;5.406;2023-12-22T12:19:36;100295.59;;;18.95;60.98
79540;BME280;74475;52.122;5.406;2023-12-22T12:22:03;100302.88;;;19.04;60.76
79540;BME280;74475;52.122;5.406;2023-12-22T12:24:31;100291.97;;;19.14;60.78
79540;BME280;74475;52.122;5.406;2023-12-22T12:26:57;100299.44;;;19.21;60.48
79540;BME280;74475;52.122;5.406;2023-12-22T12:29:24;100313.91;;;19.31;60.48
79540;BME280;74475;52.122;5.406;2023-12-22T12:31:50;100293.09;;;19.40;60.32
79540;BME280;74475;52.122;5.406;2023-12-22T12:34:17;100292.41;;;19.48;60.03
79540;BME280;74475;52.122;5.406;2023-12-22T12:36:47;100301.72;;;19.55;59.88
79540;BME280;74475;52.122;5.406;2023-12-22T12:39:15;100291.19;;;19.60;59.71
79540;BME280;74475;52.122;5.406;2023-12-22T12:41:43;100279.84;;;19.64;59.69
79540;BME280;74475;52.122;5.406;2023-12-22T12:44:12;100295.78;;;19.69;59.74
79540;BME280;74475;52.122;5.406;2023-12-22T12:46:41;100287.13;;;19.73;59.55
79540;BME280;74475;52.122;5.406;2023-12-22T12:49:10;100294.88;;;19.78;59.60
79540;BME280;74475;52.122;5.406;2023-12-22T12:51:47;100298.16;;;19.81;59.24
79540;BME280;74475;52.122;5.406;2023-12-22T12:54:15;100306.22;;;19.83;59.26
79540;BME280;74475;52.122;5.406;2023-12-22T12:56:43;100304.19;;;19.85;59.50
79540;BME280;74475;52.122;5.406;2023-12-22T12:59:11;100304.91;;;19.87;59.13